createdAt,value
2023-03-22T00:02:26.592Z,85.56
2023-03-22T00:04:54.822Z,85.89
2023-03-22T00:07:23.670Z,86.87
2023-03-22T00:09:51.493Z,87.73
2023-03-22T00:12:19.283Z,87.86
2023-03-22T00:14:48.949Z,87.09
2023-03-22T00:17:16.889Z,86.85
2023-03-22T00:19:45.259Z,87.30
2023-03-22T00:22:15.046Z,86.83
2023-03-22T00:24:43.089Z,87.32
2023-03-22T00:27:11.043Z,87.29
2023-03-22T00:29:38.940Z,87.47
2023-03-22T00:32:07.108Z,87.52
2023-03-22T00:34:35.077Z,87.35
2023-03-22T00:37:03.891Z,87.26
2023-03-22T00:39:32.327Z,87.31
2023-03-22T00:42:03.792Z,86.67
2023-03-22T00:44:31.923Z,86.68
2023-03-22T00:46:59.937Z,86.67
2023-03-22T00:49:28.230Z,86.52
2023-03-22T00:51:56.725Z,86.10
2023-03-22T00:58:13.677Z,86.95
2023-03-22T01:00:42.086Z,87.51
2023-03-22T01:03:10.240Z,87.02
2023-03-22T01:05:38.207Z,86.86
2023-03-22T01:08:09.332Z,87.03
2023-03-22T01:10:41.818Z,87.37
2023-03-22T01:13:11.531Z,87.97
2023-03-22T01:15:39.568Z,87.64
2023-03-22T01:18:08.633Z,87.61
2023-03-22T01:20:36.355Z,87.29
2023-03-22T01:23:04.387Z,87.50
2023-03-22T01:25:32.297Z,87.22
2023-03-22T01:28:02.807Z,87.45
2023-03-22T01:30:30.941Z,87.31
2023-03-22T01:32:58.850Z,87.36
2023-03-22T01:35:26.844Z,87.20
2023-03-22T01:37:54.995Z,87.20
2023-03-22T01:40:23.121Z,87.32
2023-03-22T01:42:53.565Z,87.72
2023-03-22T01:45:38.440Z,86.79
2023-03-22T01:48:13.684Z,86.87
2023-03-22T01:50:46.220Z,87.29
2023-03-22T01:53:19.076Z,86.64
2023-03-22T01:55:48.154Z,86.56
2023-03-22T01:58:24.171Z,86.29
2023-03-22T02:00:59.752Z,85.77
2023-03-22T02:03:55.179Z,85.34
2023-03-22T02:06:24.771Z,85.55
2023-03-22T02:08:59.905Z,86.09
2023-03-22T02:11:33.734Z,86.96
2023-03-22T02:14:28.713Z,87.18
2023-03-22T02:17:08.270Z,86.75
2023-03-22T02:20:11.296Z,86.61
2023-03-22T02:23:22.921Z,86.76
2023-03-22T02:26:23.849Z,86.80
2023-03-22T02:29:22.120Z,86.98
2023-03-22T02:32:20.802Z,87.65
2023-03-22T02:34:58.000Z,88.16
2023-03-22T02:37:50.744Z,88.06
2023-03-22T02:40:31.292Z,89.01
2023-03-22T02:43:16.392Z,88.78
2023-03-22T02:45:53.828Z,88.66
2023-03-22T02:48:32.766Z,88.43
2023-03-22T02:51:18.425Z,88.43
2023-03-22T02:57:00.009Z,87.83
2023-03-22T02:59:33.333Z,88.55
2023-03-22T03:02:03.941Z,88.27
2023-03-22T03:04:38.047Z,88.00
2023-03-22T03:07:09.654Z,88.16
2023-03-22T03:09:40.812Z,87.48
2023-03-22T03:12:35.013Z,87.78
2023-03-22T03:15:02.994Z,88.27
2023-03-22T03:18:03.518Z,87.96
2023-03-22T03:21:04.947Z,88.50
2023-03-22T03:23:54.420Z,87.97
2023-03-22T03:26:59.087Z,88.08
2023-03-22T03:30:06.381Z,87.42
2023-03-22T03:32:47.117Z,87.48
2023-03-22T03:35:23.716Z,86.69
2023-03-22T03:38:18.874Z,87.08
2023-03-22T03:40:56.029Z,86.50
2023-03-22T03:43:25.756Z,86.26
2023-03-22T03:45:55.670Z,86.70
2023-03-22T03:48:28.284Z,86.10
2023-03-22T03:50:57.689Z,87.12
2023-03-22T03:53:26.205Z,86.91
2023-03-22T03:55:54.481Z,87.02
2023-03-22T03:58:23.262Z,87.75
2023-03-22T04:00:51.382Z,88.14
2023-03-22T04:03:32.108Z,87.77
2023-03-22T04:06:03.987Z,88.04
2023-03-22T04:08:36.983Z,87.40
2023-03-22T04:11:05.507Z,86.85
2023-03-22T04:13:34.443Z,86.69
2023-03-22T04:16:07.419Z,86.34
2023-03-22T04:18:38.697Z,86.46
2023-03-22T04:21:09.455Z,86.34
2023-03-22T04:24:00.819Z,85.85
2023-03-22T04:26:33.288Z,85.26
2023-03-22T04:29:16.905Z,85.82
2023-03-22T04:31:49.826Z,85.71
2023-03-22T04:34:28.787Z,85.16
2023-03-22T04:37:04.630Z,86.67
2023-03-22T04:39:34.611Z,86.32
2023-03-22T04:42:21.149Z,86.96
2023-03-22T04:44:54.124Z,87.33
2023-03-22T04:47:22.389Z,87.64
2023-03-22T04:49:50.447Z,88.09
2023-03-22T04:52:18.980Z,87.26
2023-03-22T04:54:53.580Z,87.64
2023-03-22T04:57:22.979Z,87.65
2023-03-22T04:59:51.564Z,87.59
2023-03-22T05:02:19.703Z,87.00
2023-03-22T05:04:52.176Z,86.86
2023-03-22T05:07:40.560Z,86.90
2023-03-22T05:10:10.852Z,86.62
2023-03-22T05:12:38.863Z,85.90
2023-03-22T05:15:33.017Z,86.63
2023-03-22T05:18:03.780Z,87.08
2023-03-22T05:20:31.683Z,87.62
2023-03-22T05:23:11.983Z,87.38
2023-03-22T05:25:45.350Z,86.74
2023-03-22T05:28:19.769Z,86.63
2023-03-22T05:31:29.811Z,86.94
2023-03-22T05:34:01.921Z,87.51
2023-03-22T05:36:31.627Z,87.62
2023-03-22T05:39:18.313Z,87.24
2023-03-22T05:41:46.900Z,87.71
2023-03-22T05:44:15.661Z,86.80
2023-03-22T05:46:53.507Z,87.01
2023-03-22T05:49:34.852Z,85.88
2023-03-22T05:52:04.635Z,86.04
2023-03-22T05:54:47.587Z,85.69
2023-03-22T05:57:21.366Z,86.11
2023-03-22T05:59:49.645Z,85.94
2023-03-22T06:02:26.291Z,85.04
2023-03-22T06:04:54.439Z,84.44
2023-03-22T06:07:22.449Z,85.38
2023-03-22T06:09:58.554Z,85.12
2023-03-22T06:12:30.214Z,85.20
2023-03-22T06:15:09.535Z,85.35
2023-03-22T06:17:38.101Z,84.63
2023-03-22T06:20:11.176Z,84.28
2023-03-22T06:22:41.620Z,83.08
2023-03-22T06:25:10.401Z,82.88
2023-03-22T06:27:44.001Z,83.20
2023-03-22T06:30:12.163Z,83.26
2023-03-22T06:33:00.868Z,84.04
2023-03-22T06:35:29.566Z,83.53
2023-03-22T06:37:57.619Z,83.19
2023-03-22T06:40:25.866Z,82.96
2023-03-22T06:42:54.724Z,83.39
2023-03-22T06:45:23.337Z,83.73
2023-03-22T06:47:51.270Z,83.21
2023-03-22T06:50:38.560Z,83.50
2023-03-22T06:53:13.532Z,83.04
2023-03-22T06:55:41.958Z,83.12
2023-03-22T06:58:18.235Z,81.71
2023-03-22T07:00:46.263Z,81.54
2023-03-22T07:03:15.656Z,82.69
2023-03-22T07:05:50.830Z,83.33
2023-03-22T07:08:19.374Z,83.52
2023-03-22T07:10:51.840Z,83.94
2023-03-22T07:13:23.172Z,83.48
2023-03-22T07:15:59.908Z,83.18
2023-03-22T07:18:41.237Z,83.10
2023-03-22T07:21:10.093Z,83.66
2023-03-22T07:23:41.037Z,84.01
2023-03-22T07:26:13.660Z,84.29
2023-03-22T07:28:46.291Z,83.90
2023-03-22T07:31:16.434Z,83.75
2023-03-22T07:34:13.539Z,83.53
2023-03-22T07:36:52.144Z,83.25
2023-03-22T07:39:21.346Z,83.04
2023-03-22T07:41:50.220Z,83.94
2023-03-22T07:44:41.145Z,83.85
2023-03-22T07:47:37.853Z,84.18
2023-03-22T07:50:32.002Z,84.64
2023-03-22T07:53:04.283Z,84.08
2023-03-22T07:55:32.621Z,84.69
2023-03-22T07:58:00.753Z,84.89
2023-03-22T08:00:29.072Z,83.77
2023-03-22T08:03:17.121Z,84.77
2023-03-22T08:06:07.309Z,84.64
2023-03-22T08:08:37.132Z,84.69
2023-03-22T08:11:07.146Z,85.55
2023-03-22T08:13:35.980Z,85.71
2023-03-22T08:16:04.332Z,85.76
2023-03-22T08:18:33.234Z,85.69
2023-03-22T08:21:01.366Z,86.03
2023-03-22T08:23:41.364Z,85.66
2023-03-22T08:26:33.148Z,85.78
2023-03-22T08:29:11.797Z,84.84
2023-03-22T08:31:39.978Z,84.60
2023-03-22T08:34:08.015Z,84.84
2023-03-22T08:36:37.405Z,84.92
2023-03-22T08:39:06.026Z,83.82
2023-03-22T08:41:54.406Z,84.60
2023-03-22T08:44:26.308Z,83.89
2023-03-22T08:46:54.784Z,82.92
2023-03-22T08:49:23.315Z,83.17
2023-03-22T08:51:59.214Z,83.51
2023-03-22T08:55:03.355Z,84.18
2023-03-22T08:58:19.891Z,82.65
2023-03-22T09:01:21.369Z,82.63
2023-03-22T09:03:54.484Z,83.45
2023-03-22T09:06:22.675Z,83.94
2023-03-22T09:08:52.399Z,83.32
2023-03-22T09:11:24.003Z,83.76
2023-03-22T09:13:52.204Z,83.31
2023-03-22T09:16:21.016Z,82.95
2023-03-22T09:18:49.624Z,83.03
2023-03-22T09:21:22.080Z,82.49
2023-03-22T09:24:08.960Z,82.43
2023-03-22T09:26:41.774Z,81.83
2023-03-22T09:29:10.185Z,81.82
2023-03-22T09:31:38.740Z,82.04
2023-03-22T09:34:17.051Z,82.86
2023-03-22T09:36:45.001Z,82.78
2023-03-22T09:39:14.054Z,82.85
2023-03-22T09:41:50.473Z,83.17
2023-03-22T09:44:41.453Z,82.89
2023-03-22T09:47:28.758Z,82.76
2023-03-22T09:50:12.847Z,83.00
2023-03-22T09:52:41.258Z,82.85
2023-03-22T09:55:40.243Z,83.58
2023-03-22T10:03:41.106Z,83.71
2023-03-22T10:06:18.991Z,85.11
2023-03-22T10:09:24.677Z,85.78
2023-03-22T10:11:58.923Z,86.13
2023-03-22T10:14:35.713Z,85.46
2023-03-22T10:17:11.914Z,85.64
2023-03-22T10:20:06.424Z,86.08
2023-03-22T10:22:38.582Z,85.81
2023-03-22T10:25:08.631Z,85.23
2023-03-22T10:27:37.779Z,85.31
2023-03-22T10:30:41.801Z,84.16
2023-03-22T10:33:19.601Z,84.80
2023-03-22T10:35:51.164Z,85.12
2023-03-22T10:38:25.445Z,83.55
2023-03-22T10:40:57.341Z,83.43
2023-03-22T10:43:27.936Z,82.80
2023-03-22T10:45:57.707Z,84.47
2023-03-22T10:48:33.748Z,83.10
2023-03-22T10:51:02.626Z,82.89
2023-03-22T10:53:30.508Z,83.18
2023-03-22T10:55:58.524Z,83.30
2023-03-22T10:58:31.445Z,82.47
2023-03-22T11:01:05.969Z,81.94
2023-03-22T11:03:44.167Z,80.91
2023-03-22T11:06:13.757Z,80.83
2023-03-22T11:08:58.283Z,80.91
2023-03-22T11:11:51.696Z,80.26
2023-03-22T11:14:44.307Z,79.65
2023-03-22T11:17:17.378Z,79.29
2023-03-22T11:19:58.980Z,80.70
2023-03-22T11:22:32.597Z,80.36
2023-03-22T11:25:02.276Z,80.45
2023-03-22T11:27:33.290Z,80.34
2023-03-22T11:30:21.947Z,80.34
2023-03-22T11:33:00.203Z,79.88
2023-03-22T11:35:30.964Z,80.59
2023-03-22T11:37:59.725Z,79.58
2023-03-22T11:40:32.259Z,79.41
2023-03-22T11:43:24.662Z,78.51
2023-03-22T11:45:57.027Z,78.68
2023-03-22T11:48:27.757Z,78.48
2023-03-22T11:51:04.620Z,78.29
2023-03-22T11:53:34.759Z,78.75
2023-03-22T11:56:07.691Z,79.48
2023-03-22T11:58:49.198Z,79.39
2023-03-22T12:01:24.529Z,79.57
2023-03-22T12:03:57.652Z,80.33
2023-03-22T12:06:31.896Z,80.16
2023-03-22T12:09:07.170Z,80.85
2023-03-22T12:11:43.137Z,80.70
2023-03-22T12:14:30.215Z,79.81
2023-03-22T12:17:30.417Z,80.11
2023-03-22T12:20:20.512Z,79.43
2023-03-22T12:22:53.607Z,78.87
2023-03-22T12:25:25.951Z,78.21
2023-03-22T12:28:16.725Z,78.94
2023-03-22T12:30:52.194Z,78.67
2023-03-22T12:33:31.501Z,78.31
2023-03-22T12:36:03.149Z,77.07
2023-03-22T12:38:43.166Z,77.16
2023-03-22T12:41:16.266Z,76.11
2023-03-22T12:43:58.146Z,77.23
2023-03-22T12:46:35.811Z,77.20
2023-03-22T12:49:22.161Z,76.67
2023-03-22T12:51:54.724Z,76.70
2023-03-22T12:54:25.930Z,76.64
2023-03-22T12:56:55.693Z,76.95
2023-03-22T12:59:29.118Z,77.96
2023-03-22T13:02:17.296Z,77.73
2023-03-22T13:04:45.291Z,77.71
2023-03-22T13:07:31.359Z,77.53
2023-03-22T13:10:00.998Z,78.68
2023-03-22T13:12:32.612Z,80.17
2023-03-22T13:15:25.982Z,80.06
2023-03-22T13:17:59.632Z,80.82
2023-03-22T13:20:29.573Z,80.42
2023-03-22T13:22:57.686Z,80.67
2023-03-22T13:25:26.444Z,80.80
2023-03-22T13:28:26.622Z,79.81
2023-03-22T13:30:57.516Z,79.83
2023-03-22T13:33:35.411Z,78.80
2023-03-22T13:36:09.290Z,78.60
2023-03-22T13:38:43.008Z,78.64
2023-03-22T13:41:30.831Z,78.11
2023-03-22T13:44:01.943Z,77.51
2023-03-22T13:46:45.907Z,77.88
2023-03-22T13:49:58.242Z,78.39
2023-03-22T13:52:36.952Z,77.40
2023-03-22T13:55:34.197Z,76.85
2023-03-22T13:58:05.795Z,75.77
2023-03-22T14:00:39.354Z,75.94
2023-03-22T14:03:37.705Z,77.19
2023-03-22T14:06:15.237Z,77.69
2023-03-22T14:08:46.267Z,77.82
2023-03-22T14:11:24.005Z,78.99
2023-03-22T14:14:08.155Z,79.02
2023-03-22T14:16:43.211Z,80.12
2023-03-22T14:19:16.922Z,79.58
